sensor_id;sensor_type;location;lat;lon;timestamp;P1;durP1;ratioP1;P2;durP2;ratioP2
65706;SDS011;52423;43.512;5.220;2023-09-19T00:00:33;8.40;;;4.07;;
65706;SDS011;52423;43.512;5.220;2023-09-19T00:02:59;11.65;;;4.50;;
65706;SDS011;52423;43.512;5.220;2023-09-19T00:05:28;12.15;;;4.18;;
65706;SDS011;52423;43.512;5.220;2023-09-19T00:07:55;10.82;;;3.85;;
65706;SDS011;52423;43.512;5.220;2023-09-19T00:10:24;9.70;;;3.88;;
65706;SDS011;52423;43.512;5.220;2023-09-19T00:12:52;9.63;;;4.35;;
65706;SDS011;52423;43.512;5.220;2023-09-19T00:15:20;7.88;;;3.60;;
65706;SDS011;52423;43.512;5.220;2023-09-19T00:17:47;7.88;;;3.83;;
65706;SDS011;52423;43.512;5.220;2023-09-19T00:20:13;5.22;;;3.50;;
65706;SDS011;52423;43.512;5.220;2023-09-19T00:22:42;9.70;;;3.78;;
65706;SDS011;52423;43.512;5.220;2023-09-19T00:25:08;10.05;;;4.30;;
65706;SDS011;52423;43.512;5.220;2023-09-19T00:27:39;8.95;;;3.20;;
65706;SDS011;52423;43.512;5.220;2023-09-19T00:30:10;7.07;;;3.50;;
65706;SDS011;52423;43.512;5.220;2023-09-19T00:32:41;4.55;;;3.08;;
65706;SDS011;52423;43.512;5.220;2023-09-19T00:35:08;9.48;;;3.50;;
65706;SDS011;52423;43.512;5.220;2023-09-19T00:37:37;8.02;;;3.20;;
65706;SDS011;52423;43.512;5.220;2023-09-19T00:40:06;7.45;;;3.20;;
65706;SDS011;52423;43.512;5.220;2023-09-19T00:42:37;5.78;;;3.08;;
65706;SDS011;52423;43.512;5.220;2023-09-19T00:45:06;4.57;;;2.97;;
65706;SDS011;52423;43.512;5.220;2023-09-19T00:47:35;6.97;;;2.90;;
65706;SDS011;52423;43.512;5.220;2023-09-19T00:50:02;6.75;;;3.17;;
65706;SDS011;52423;43.512;5.220;2023-09-19T00:52:29;5.47;;;3.05;;
65706;SDS011;52423;43.512;5.220;2023-09-19T00:54:57;7.93;;;2.78;;
65706;SDS011;52423;43.512;5.220;2023-09-19T00:57:23;7.13;;;3.10;;
65706;SDS011;52423;43.512;5.220;2023-09-19T00:59:49;6.00;;;2.85;;
65706;SDS011;52423;43.512;5.220;2023-09-19T01:02:18;3.78;;;2.60;;
65706;SDS011;52423;43.512;5.220;2023-09-19T01:04:43;7.45;;;2.88;;
65706;SDS011;52423;43.512;5.220;2023-09-19T01:07:10;6.72;;;2.95;;
65706;SDS011;52423;43.512;5.220;2023-09-19T01:09:35;4.78;;;2.92;;
65706;SDS011;52423;43.512;5.220;2023-09-19T01:12:02;4.55;;;2.28;;
65706;SDS011;52423;43.512;5.220;2023-09-19T01:14:35;6.53;;;2.75;;
65706;SDS011;52423;43.512;5.220;2023-09-19T01:28:44;7.53;;;3.03;;
65706;SDS011;52423;43.512;5.220;2023-09-19T01:31:31;5.20;;;2.70;;
65706;SDS011;52423;43.512;5.220;2023-09-19T01:34:01;5.65;;;2.97;;
65706;SDS011;52423;43.512;5.220;2023-09-19T01:36:30;4.38;;;2.85;;
65706;SDS011;52423;43.512;5.220;2023-09-19T01:41:45;7.18;;;3.08;;
65706;SDS011;52423;43.512;5.220;2023-09-19T01:44:24;5.00;;;2.70;;
65706;SDS011;52423;43.512;5.220;2023-09-19T01:46:58;3.42;;;2.40;;
65706;SDS011;52423;43.512;5.220;2023-09-19T01:49:37;3.22;;;2.72;;
65706;SDS011;52423;43.512;5.220;2023-09-19T01:52:14;3.92;;;2.47;;
65706;SDS011;52423;43.512;5.220;2023-09-19T01:54:55;7.65;;;2.97;;
65706;SDS011;52423;43.512;5.220;2023-09-19T01:59:52;6.05;;;2.50;;
65706;SDS011;52423;43.512;5.220;2023-09-19T02:02:22;4.63;;;2.38;;
65706;SDS011;52423;43.512;5.220;2023-09-19T02:04:48;7.63;;;2.40;;
65706;SDS011;52423;43.512;5.220;2023-09-19T02:07:15;4.43;;;2.42;;
65706;SDS011;52423;43.512;5.220;2023-09-19T02:09:41;3.50;;;2.20;;
65706;SDS011;52423;43.512;5.220;2023-09-19T02:12:08;4.30;;;2.22;;
65706;SDS011;52423;43.512;5.220;2023-09-19T02:14:34;6.40;;;2.35;;
65706;SDS011;52423;43.512;5.220;2023-09-19T02:17:01;4.72;;;2.22;;
65706;SDS011;52423;43.512;5.220;2023-09-19T02:19:28;4.28;;;2.13;;
65706;SDS011;52423;43.512;5.220;2023-09-19T02:21:55;7.25;;;2.35;;
65706;SDS011;52423;43.512;5.220;2023-09-19T02:24:20;3.30;;;1.90;;
65706;SDS011;52423;43.512;5.220;2023-09-19T02:26:46;4.20;;;2.00;;
65706;SDS011;52423;43.512;5.220;2023-09-19T02:29:12;3.38;;;2.20;;
65706;SDS011;52423;43.512;5.220;2023-09-19T02:31:38;4.47;;;1.70;;
65706;SDS011;52423;43.512;5.220;2023-09-19T02:34:04;3.33;;;2.28;;
65706;SDS011;52423;43.512;5.220;2023-09-19T02:36:34;2.55;;;1.80;;
65706;SDS011;52423;43.512;5.220;2023-09-19T02:38:59;2.20;;;1.90;;
65706;SDS011;52423;43.512;5.220;2023-09-19T02:41:25;3.55;;;2.30;;
65706;SDS011;52423;43.512;5.220;2023-09-19T02:43:50;4.22;;;2.03;;
65706;SDS011;52423;43.512;5.220;2023-09-19T02:46:16;3.55;;;2.00;;
65706;SDS011;52423;43.512;5.220;2023-09-19T02:48:41;5.38;;;1.77;;
65706;SDS011;52423;43.512;5.220;2023-09-19T02:51:07;2.67;;;1.67;;
65706;SDS011;52423;43.512;5.220;2023-09-19T02:53:32;2.55;;;1.70;;
65706;SDS011;52423;43.512;5.220;2023-09-19T02:55:58;3.40;;;2.10;;
65706;SDS011;52423;43.512;5.220;2023-09-19T02:58:24;2.13;;;1.75;;
65706;SDS011;52423;43.512;5.220;2023-09-19T03:00:50;1.67;;;1.58;;
65706;SDS011;52423;43.512;5.220;2023-09-19T03:03:16;2.65;;;1.83;;
65706;SDS011;52423;43.512;5.220;2023-09-19T03:05:42;2.85;;;1.80;;
65706;SDS011;52423;43.512;5.220;2023-09-19T03:08:12;2.63;;;1.70;;
65706;SDS011;52423;43.512;5.220;2023-09-19T03:10:41;1.75;;;1.65;;
65706;SDS011;52423;43.512;5.220;2023-09-19T03:13:07;2.05;;;1.40;;
65706;SDS011;52423;43.512;5.220;2023-09-19T03:15:34;5.28;;;2.05;;
65706;SDS011;52423;43.512;5.220;2023-09-19T03:18:03;2.85;;;1.95;;
65706;SDS011;52423;43.512;5.220;2023-09-19T03:20:30;1.60;;;1.50;;
65706;SDS011;52423;43.512;5.220;2023-09-19T03:22:55;2.60;;;1.80;;
65706;SDS011;52423;43.512;5.220;2023-09-19T03:25:22;1.73;;;1.63;;
65706;SDS011;52423;43.512;5.220;2023-09-19T03:27:48;3.22;;;1.98;;
65706;SDS011;52423;43.512;5.220;2023-09-19T03:30:14;3.03;;;1.67;;
65706;SDS011;52423;43.512;5.220;2023-09-19T03:32:46;2.22;;;1.65;;
65706;SDS011;52423;43.512;5.220;2023-09-19T03:35:14;3.13;;;1.63;;
65706;SDS011;52423;43.512;5.220;2023-09-19T03:37:41;2.15;;;1.65;;
65706;SDS011;52423;43.512;5.220;2023-09-19T03:40:07;2.20;;;1.40;;
65706;SDS011;52423;43.512;5.220;2023-09-19T03:42:37;2.55;;;1.48;;
65706;SDS011;52423;43.512;5.220;2023-09-19T03:45:03;2.63;;;1.33;;
65706;SDS011;52423;43.512;5.220;2023-09-19T03:47:30;2.03;;;1.80;;
65706;SDS011;52423;43.512;5.220;2023-09-19T03:49:56;4.85;;;1.88;;
65706;SDS011;52423;43.512;5.220;2023-09-19T03:52:21;2.78;;;1.55;;
65706;SDS011;52423;43.512;5.220;2023-09-19T03:54:47;1.95;;;1.50;;
65706;SDS011;52423;43.512;5.220;2023-09-19T03:57:12;1.85;;;1.70;;
65706;SDS011;52423;43.512;5.220;2023-09-19T03:59:40;4.18;;;1.55;;
65706;SDS011;52423;43.512;5.220;2023-09-19T04:02:07;1.90;;;1.38;;
65706;SDS011;52423;43.512;5.220;2023-09-19T04:04:36;2.35;;;1.30;;
65706;SDS011;52423;43.512;5.220;2023-09-19T04:07:02;3.33;;;1.50;;
65706;SDS011;52423;43.512;5.220;2023-09-19T04:09:27;3.38;;;1.80;;
65706;SDS011;52423;43.512;5.220;2023-09-19T04:11:53;1.30;;;1.20;;
65706;SDS011;52423;43.512;5.220;2023-09-19T04:14:18;3.38;;;1.63;;
65706;SDS011;52423;43.512;5.220;2023-09-19T04:16:44;3.97;;;1.40;;
65706;SDS011;52423;43.512;5.220;2023-09-19T04:19:09;1.63;;;1.40;;
65706;SDS011;52423;43.512;5.220;2023-09-19T04:21:34;1.98;;;1.52;;
65706;SDS011;52423;43.512;5.220;2023-09-19T04:24:00;1.67;;;1.40;;
65706;SDS011;52423;43.512;5.220;2023-09-19T04:26:25;1.55;;;1.27;;
65706;SDS011;52423;43.512;5.220;2023-09-19T04:28:51;1.30;;;1.20;;
65706;SDS011;52423;43.512;5.220;2023-09-19T04:31:16;2.53;;;1.30;;
65706;SDS011;52423;43.512;5.220;2023-09-19T04:33:43;1.65;;;1.23;;
65706;SDS011;52423;43.512;5.220;2023-09-19T04:36:08;2.92;;;1.63;;
65706;SDS011;52423;43.512;5.220;2023-09-19T04:38:34;3.33;;;1.45;;
65706;SDS011;52423;43.512;5.220;2023-09-19T04:41:00;3.08;;;1.40;;
65706;SDS011;52423;43.512;5.220;2023-09-19T04:43:26;3.35;;;1.80;;
65706;SDS011;52423;43.512;5.220;2023-09-19T04:45:51;1.10;;;1.10;;
65706;SDS011;52423;43.512;5.220;2023-09-19T04:48:21;2.03;;;1.35;;
65706;SDS011;52423;43.512;5.220;2023-09-19T04:50:49;2.80;;;1.92;;
65706;SDS011;52423;43.512;5.220;2023-09-19T04:53:14;4.30;;;1.52;;
65706;SDS011;52423;43.512;5.220;2023-09-19T04:55:40;4.05;;;1.40;;
65706;SDS011;52423;43.512;5.220;2023-09-19T04:58:05;4.55;;;1.55;;
65706;SDS011;52423;43.512;5.220;2023-09-19T05:00:30;1.73;;;1.63;;
65706;SDS011;52423;43.512;5.220;2023-09-19T05:03:00;1.42;;;1.33;;
65706;SDS011;52423;43.512;5.220;2023-09-19T05:05:25;1.10;;;1.10;;
65706;SDS011;52423;43.512;5.220;2023-09-19T05:07:51;1.73;;;1.10;;
65706;SDS011;52423;43.512;5.220;2023-09-19T05:10:18;1.35;;;1.05;;
65706;SDS011;52423;43.512;5.220;2023-09-19T05:12:44;1.30;;;1.20;;
65706;SDS011;52423;43.512;5.220;2023-09-19T05:15:12;1.27;;;1.20;;
65706;SDS011;52423;43.512;5.220;2023-09-19T05:17:39;2.83;;;1.05;;
65706;SDS011;52423;43.512;5.220;2023-09-19T05:20:05;1.38;;;1.20;;
65706;SDS011;52423;43.512;5.220;2023-09-19T05:22:41;2.08;;;1.23;;
65706;SDS011;52423;43.512;5.220;2023-09-19T05:25:07;3.67;;;1.30;;
65706;SDS011;52423;43.512;5.220;2023-09-19T05:27:34;2.20;;;1.00;;
65706;SDS011;52423;43.512;5.220;2023-09-19T05:29:59;2.97;;;1.10;;
65706;SDS011;52423;43.512;5.220;2023-09-19T05:32:25;1.52;;;1.02;;
65706;SDS011;52423;43.512;5.220;2023-09-19T05:34:50;2.38;;;1.40;;
65706;SDS011;52423;43.512;5.220;2023-09-19T05:37:21;2.10;;;1.15;;
65706;SDS011;52423;43.512;5.220;2023-09-19T05:39:48;4.43;;;0.90;;
65706;SDS011;52423;43.512;5.220;2023-09-19T05:42:14;2.80;;;1.10;;
65706;SDS011;52423;43.512;5.220;2023-09-19T05:44:39;1.35;;;1.25;;
65706;SDS011;52423;43.512;5.220;2023-09-19T05:47:05;1.45;;;1.20;;
65706;SDS011;52423;43.512;5.220;2023-09-19T05:49:34;1.08;;;1.05;;
65706;SDS011;52423;43.512;5.220;2023-09-19T05:52:03;0.95;;;0.85;;
65706;SDS011;52423;43.512;5.220;2023-09-19T05:54:32;1.67;;;1.35;;
65706;SDS011;52423;43.512;5.220;2023-09-19T05:56:59;3.67;;;1.55;;
65706;SDS011;52423;43.512;5.220;2023-09-19T05:59:27;3.40;;;1.10;;
65706;SDS011;52423;43.512;5.220;2023-09-19T06:01:53;1.63;;;1.20;;
65706;SDS011;52423;43.512;5.220;2023-09-19T06:04:18;1.38;;;1.20;;
65706;SDS011;52423;43.512;5.220;2023-09-19T06:06:46;1.95;;;1.38;;
65706;SDS011;52423;43.512;5.220;2023-09-19T06:09:14;2.08;;;1.15;;
65706;SDS011;52423;43.512;5.220;2023-09-19T06:11:41;1.80;;;1.55;;
65706;SDS011;52423;43.512;5.220;2023-09-19T06:14:07;1.60;;;1.15;;
65706;SDS011;52423;43.512;5.220;2023-09-19T06:16:32;1.20;;;1.10;;
65706;SDS011;52423;43.512;5.220;2023-09-19T06:18:58;3.80;;;1.25;;
65706;SDS011;52423;43.512;5.220;2023-09-19T06:21:25;2.63;;;1.23;;
65706;SDS011;52423;43.512;5.220;2023-09-19T06:23:52;3.40;;;1.50;;
65706;SDS011;52423;43.512;5.220;2023-09-19T06:26:18;5.82;;;1.60;;
65706;SDS011;52423;43.512;5.220;2023-09-19T06:28:43;4.20;;;1.27;;
65706;SDS011;52423;43.512;5.220;2023-09-19T06:31:09;2.15;;;1.13;;
65706;SDS011;52423;43.512;5.220;2023-09-19T06:33:38;3.08;;;1.40;;
65706;SDS011;52423;43.512;5.220;2023-09-19T06:36:08;1.88;;;1.15;;
65706;SDS011;52423;43.512;5.220;2023-09-19T06:38:33;1.83;;;1.33;;
65706;SDS011;52423;43.512;5.220;2023-09-19T06:41:01;1.52;;;1.23;;
65706;SDS011;52423;43.512;5.220;2023-09-19T06:43:29;2.40;;;1.60;;
65706;SDS011;52423;43.512;5.220;2023-09-19T06:45:55;5.55;;;1.35;;
65706;SDS011;52423;43.512;5.220;2023-09-19T06:48:21;3.17;;;1.27;;
65706;SDS011;52423;43.512;5.220;2023-09-19T06:50:46;4.47;;;1.30;;
65706;SDS011;52423;43.512;5.220;2023-09-19T06:53:13;3.47;;;1.20;;
65706;SDS011;52423;43.512;5.220;2023-09-19T06:55:39;2.47;;;1.20;;
65706;SDS011;52423;43.512;5.220;2023-09-19T06:58:05;1.48;;;1.33;;
65706;SDS011;52423;43.512;5.220;2023-09-19T07:00:31;2.42;;;1.23;;
65706;SDS011;52423;43.512;5.220;2023-09-19T07:03:01;1.98;;;1.02;;
65706;SDS011;52423;43.512;5.220;2023-09-19T07:05:36;3.17;;;1.33;;
65706;SDS011;52423;43.512;5.220;2023-09-19T07:08:04;1.92;;;1.00;;
65706;SDS011;52423;43.512;5.220;2023-09-19T07:10:31;3.90;;;1.33;;
65706;SDS011;52423;43.512;5.220;2023-09-19T07:13:01;2.53;;;1.50;;
65706;SDS011;52423;43.512;5.220;2023-09-19T07:15:28;2.20;;;1.38;;
65706;SDS011;52423;43.512;5.220;2023-09-19T07:17:56;1.00;;;0.90;;
65706;SDS011;52423;43.512;5.220;2023-09-19T07:20:22;1.27;;;0.80;;
65706;SDS011;52423;43.512;5.220;2023-09-19T07:22:50;1.80;;;1.35;;
65706;SDS011;52423;43.512;5.220;2023-09-19T07:25:16;2.75;;;1.00;;
65706;SDS011;52423;43.512;5.220;2023-09-19T07:27:41;3.20;;;1.20;;
65706;SDS011;52423;43.512;5.220;2023-09-19T07:30:08;1.02;;;1.00;;
65706;SDS011;52423;43.512;5.220;2023-09-19T07:32:33;1.20;;;1.10;;
65706;SDS011;52423;43.512;5.220;2023-09-19T07:35:01;1.25;;;0.98;;
65706;SDS011;52423;43.512;5.220;2023-09-19T07:37:27;3.70;;;1.17;;
65706;SDS011;52423;43.512;5.220;2023-09-19T07:39:54;1.65;;;1.30;;
65706;SDS011;52423;43.512;5.220;2023-09-19T07:42:19;1.70;;;1.10;;
65706;SDS011;52423;43.512;5.220;2023-09-19T07:44:45;2.10;;;1.23;;
65706;SDS011;52423;43.512;5.220;2023-09-19T07:47:15;1.83;;;0.90;;
65706;SDS011;52423;43.512;5.220;2023-09-19T07:49:41;1.65;;;1.25;;
65706;SDS011;52423;43.512;5.220;2023-09-19T07:52:07;1.52;;;1.00;;
65706;SDS011;52423;43.512;5.220;2023-09-19T07:54:34;4.95;;;1.00;;
65706;SDS011;52423;43.512;5.220;2023-09-19T07:57:00;2.50;;;0.70;;
65706;SDS011;52423;43.512;5.220;2023-09-19T07:59:26;3.47;;;1.10;;
65706;SDS011;52423;43.512;5.220;2023-09-19T08:01:52;3.67;;;0.85;;
65706;SDS011;52423;43.512;5.220;2023-09-19T08:04:17;1.70;;;1.10;;
65706;SDS011;52423;43.512;5.220;2023-09-19T08:06:44;1.65;;;0.98;;
65706;SDS011;52423;43.512;5.220;2023-09-19T08:09:10;1.02;;;0.70;;
65706;SDS011;52423;43.512;5.220;2023-09-19T08:11:36;1.10;;;1.00;;
65706;SDS011;52423;43.512;5.220;2023-09-19T08:14:01;1.80;;;0.95;;
65706;SDS011;52423;43.512;5.220;2023-09-19T08:16:27;2.00;;;1.20;;
65706;SDS011;52423;43.512;5.220;2023-09-19T08:18:53;1.10;;;1.00;;
65706;SDS011;52423;43.512;5.220;2023-09-19T08:21:19;0.90;;;0.90;;
65706;SDS011;52423;43.512;5.220;2023-09-19T08:23:45;1.10;;;1.00;;
65706;SDS011;52423;43.512;5.220;2023-09-19T08:26:11;0.80;;;0.80;;
65706;SDS011;52423;43.512;5.220;2023-09-19T08:28:36;1.05;;;0.90;;
65706;SDS011;52423;43.512;5.220;2023-09-19T08:31:05;0.90;;;0.90;;
65706;SDS011;52423;43.512;5.220;2023-09-19T08:33:33;1.10;;;1.05;;
65706;SDS011;52423;43.512;5.220;2023-09-19T08:36:00;0.98;;;0.98;;
65706;SDS011;52423;43.512;5.220;2023-09-19T08:38:26;0.82;;;0.82;;
65706;SDS011;52423;43.512;5.220;2023-09-19T08:41:04;0.98;;;0.80;;
65706;SDS011;52423;43.512;5.220;2023-09-19T08:43:32;0.85;;;0.82;;
65706;SDS011;52423;43.512;5.220;2023-09-19T08:46:09;1.20;;;0.85;;
65706;SDS011;52423;43.512;5.220;2023-09-19T08:48:36;0.80;;;0.80;;
65706;SDS011;52423;43.512;5.220;2023-09-19T08:51:07;0.80;;;0.80;;
65706;SDS011;52423;43.512;5.220;2023-09-19T08:53:42;1.25;;;0.80;;
65706;SDS011;52423;43.512;5.220;2023-09-19T08:56:14;1.85;;;0.77;;
65706;SDS011;52423;43.512;5.220;2023-09-19T08:58:59;1.05;;;0.85;;
65706;SDS011;52423;43.512;5.220;2023-09-19T09:01:27;1.00;;;0.82;;
65706;SDS011;52423;43.512;5.220;2023-09-19T09:03:54;1.33;;;0.68;;
65706;SDS011;52423;43.512;5.220;2023-09-19T09:06:20;0.80;;;0.80;;
65706;SDS011;52423;43.512;5.220;2023-09-19T09:08:48;2.45;;;1.00;;
65706;SDS011;52423;43.512;5.220;2023-09-19T09:11:15;0.85;;;0.70;;
65706;SDS011;52423;43.512;5.220;2023-09-19T09:13:43;1.40;;;1.02;;
65706;SDS011;52423;43.512;5.220;2023-09-19T09:16:09;0.80;;;0.80;;
65706;SDS011;52423;43.512;5.220;2023-09-19T09:18:35;2.72;;;0.90;;
65706;SDS011;52423;43.512;5.220;2023-09-19T09:21:01;2.08;;;0.60;;
65706;SDS011;52423;43.512;5.220;2023-09-19T09:23:26;1.67;;;0.98;;
65706;SDS011;52423;43.512;5.220;2023-09-19T09:25:54;0.70;;;0.70;;
65706;SDS011;52423;43.512;5.220;2023-09-19T09:28:44;0.80;;;0.80;;
65706;SDS011;52423;43.512;5.220;2023-09-19T09:31:23;0.60;;;0.60;;
65706;SDS011;52423;43.512;5.220;2023-09-19T09:33:55;0.85;;;0.80;;
65706;SDS011;52423;43.512;5.220;2023-09-19T09:39:29;0.88;;;0.82;;
65706;SDS011;52423;43.512;5.220;2023-09-19T09:41:56;0.98;;;0.98;;
65706;SDS011;52423;43.512;5.220;2023-09-19T09:44:24;0.80;;;0.80;;
65706;SDS011;52423;43.512;5.220;2023-09-19T09:46:49;1.00;;;0.90;;
65706;SDS011;52423;43.512;5.220;2023-09-19T09:49:15;0.98;;;0.70;;
65706;SDS011;52423;43.512;5.220;2023-09-19T09:51:57;1.42;;;0.80;;
65706;SDS011;52423;43.512;5.220;2023-09-19T09:54:26;0.73;;;0.73;;
65706;SDS011;52423;43.512;5.220;2023-09-19T09:57:00;0.82;;;0.80;;
65706;SDS011;52423;43.512;5.220;2023-09-19T09:59:48;0.82;;;0.80;;
65706;SDS011;52423;43.512;5.220;2023-09-19T10:02:15;0.77;;;0.77;;
65706;SDS011;52423;43.512;5.220;2023-09-19T10:04:54;1.00;;;0.80;;
65706;SDS011;52423;43.512;5.220;2023-09-19T10:07:40;0.52;;;0.52;;
65706;SDS011;52423;43.512;5.220;2023-09-19T10:10:07;0.82;;;0.80;;
65706;SDS011;52423;43.512;5.220;2023-09-19T10:12:48;0.63;;;0.63;;
65706;SDS011;52423;43.512;5.220;2023-09-19T10:15:17;1.25;;;1.10;;
65706;SDS011;52423;43.512;5.220;2023-09-19T10:17:45;0.60;;;0.60;;
65706;SDS011;52423;43.512;5.220;2023-09-19T10:20:12;0.60;;;0.60;;
65706;SDS011;52423;43.512;5.220;2023-09-19T10:23:03;1.05;;;0.88;;
65706;SDS011;52423;43.512;5.220;2023-09-19T10:25:36;0.88;;;0.68;;
65706;SDS011;52423;43.512;5.220;2023-09-19T10:28:02;0.82;;;0.68;;
65706;SDS011;52423;43.512;5.220;2023-09-19T10:30:31;1.00;;;0.88;;
65706;SDS011;52423;43.512;5.220;2023-09-19T10:33:03;1.15;;;1.00;;
65706;SDS011;52423;43.512;5.220;2023-09-19T10:35:30;0.70;;;0.70;;
65706;SDS011;52423;43.512;5.220;2023-09-19T10:37:59;0.95;;;0.85;;
65706;SDS011;52423;43.512;5.220;2023-09-19T10:40:29;0.65;;;0.60;;
65706;SDS011;52423;43.512;5.220;2023-09-19T10:45:29;1.53;;;1.07;;
65706;SDS011;52423;43.512;5.220;2023-09-19T10:47:56;0.60;;;0.60;;
65706;SDS011;52423;43.512;5.220;2023-09-19T10:50:22;2.67;;;0.60;;
65706;SDS011;52423;43.512;5.220;2023-09-19T10:52:49;0.80;;;0.80;;
65706;SDS011;52423;43.512;5.220;2023-09-19T10:55:23;0.63;;;0.63;;
65706;SDS011;52423;43.512;5.220;2023-09-19T10:57:53;2.20;;;0.60;;
65706;SDS011;52423;43.512;5.220;2023-09-19T11:00:18;0.90;;;0.60;;
65706;SDS011;52423;43.512;5.220;2023-09-19T11:05:37;0.98;;;0.77;;
65706;SDS011;52423;43.512;5.220;2023-09-19T11:08:09;0.88;;;0.88;;
65706;SDS011;52423;43.512;5.220;2023-09-19T11:10:46;0.70;;;0.70;;
65706;SDS011;52423;43.512;5.220;2023-09-19T11:26:47;0.80;;;0.70;;
65706;SDS011;52423;43.512;5.220;2023-09-19T11:29:25;1.00;;;1.00;;
65706;SDS011;52423;43.512;5.220;2023-09-19T11:31:56;0.80;;;0.80;;
65706;SDS011;52423;43.512;5.220;2023-09-19T11:40:07;0.70;;;0.70;;
65706;SDS011;52423;43.512;5.220;2023-09-19T11:42:42;0.73;;;0.73;;
65706;SDS011;52423;43.512;5.220;2023-09-19T11:48:06;0.85;;;0.85;;
65706;SDS011;52423;43.512;5.220;2023-09-19T11:50:32;0.80;;;0.80;;
65706;SDS011;52423;43.512;5.220;2023-09-19T11:53:01;0.60;;;0.60;;
65706;SDS011;52423;43.512;5.220;2023-09-19T11:55:28;0.80;;;0.80;;
65706;SDS011;52423;43.512;5.220;2023-09-19T11:57:57;0.82;;;0.70;;
65706;SDS011;52423;43.512;5.220;2023-09-19T12:00:24;0.70;;;0.70;;
65706;SDS011;52423;43.512;5.220;2023-09-19T12:02:52;0.80;;;0.80;;
65706;SDS011;52423;43.512;5.220;2023-09-19T12:05:29;0.63;;;0.63;;
65706;SDS011;52423;43.512;5.220;2023-09-19T12:07:56;0.80;;;0.80;;
65706;SDS011;52423;43.512;5.220;2023-09-19T12:10:21;1.83;;;0.82;;
65706;SDS011;52423;43.512;5.220;2023-09-19T12:12:48;1.13;;;0.90;;
65706;SDS011;52423;43.512;5.220;2023-09-19T12:15:14;2.20;;;0.80;;
65706;SDS011;52423;43.512;5.220;2023-09-19T12:17:40;1.00;;;0.90;;
65706;SDS011;52423;43.512;5.220;2023-09-19T12:20:07;0.88;;;0.88;;
65706;SDS011;52423;43.512;5.220;2023-09-19T12:22:40;2.38;;;1.08;;
65706;SDS011;52423;43.512;5.220;2023-09-19T12:25:08;1.80;;;0.82;;
65706;SDS011;52423;43.512;5.220;2023-09-19T12:27:46;0.80;;;0.80;;
65706;SDS011;52423;43.512;5.220;2023-09-19T12:30:18;0.82;;;0.82;;
65706;SDS011;52423;43.512;5.220;2023-09-19T12:32:45;0.90;;;0.90;;
65706;SDS011;52423;43.512;5.220;2023-09-19T12:35:26;2.40;;;0.77;;
65706;SDS011;52423;43.512;5.220;2023-09-19T12:37:54;0.70;;;0.70;;
65706;SDS011;52423;43.512;5.220;2023-09-19T12:40:20;0.70;;;0.70;;
65706;SDS011;52423;43.512;5.220;2023-09-19T12:42:56;1.15;;;0.90;;
65706;SDS011;52423;43.512;5.220;2023-09-19T12:45:23;0.80;;;0.80;;
65706;SDS011;52423;43.512;5.220;2023-09-19T12:51:06;0.80;;;0.80;;
65706;SDS011;52423;43.512;5.220;2023-09-19T12:53:35;0.90;;;0.80;;
65706;SDS011;52423;43.512;5.220;2023-09-19T12:56:05;0.70;;;0.70;;
65706;SDS011;52423;43.512;5.220;2023-09-19T12:58:33;1.20;;;0.73;;
65706;SDS011;52423;43.512;5.220;2023-09-19T13:01:00;0.85;;;0.70;;
65706;SDS011;52423;43.512;5.220;2023-09-19T13:03:26;0.88;;;0.75;;
65706;SDS011;52423;43.512;5.220;2023-09-19T13:06:01;0.63;;;0.63;;
65706;SDS011;52423;43.512;5.220;2023-09-19T13:08:35;0.60;;;0.60;;
65706;SDS011;52423;43.512;5.220;2023-09-19T13:11:12;0.60;;;0.60;;
65706;SDS011;52423;43.512;5.220;2023-09-19T13:16:30;1.08;;;0.75;;
65706;SDS011;52423;43.512;5.220;2023-09-19T13:18:56;0.80;;;0.77;;
65706;SDS011;52423;43.512;5.220;2023-09-19T13:21:29;0.70;;;0.70;;
65706;SDS011;52423;43.512;5.220;2023-09-19T13:24:20;0.80;;;0.80;;
65706;SDS011;52423;43.512;5.220;2023-09-19T13:26:48;0.73;;;0.73;;
65706;SDS011;52423;43.512;5.220;2023-09-19T13:29:13;0.70;;;0.70;;
65706;SDS011;52423;43.512;5.220;2023-09-19T13:31:45;0.70;;;0.60;;
65706;SDS011;52423;43.512;5.220;2023-09-19T13:36:43;0.60;;;0.60;;
65706;SDS011;52423;43.512;5.220;2023-09-19T13:39:09;0.70;;;0.70;;
65706;SDS011;52423;43.512;5.220;2023-09-19T13:41:35;0.75;;;0.70;;
65706;SDS011;52423;43.512;5.220;2023-09-19T13:44:04;0.52;;;0.52;;
65706;SDS011;52423;43.512;5.220;2023-09-19T13:46:30;0.57;;;0.57;;
65706;SDS011;52423;43.512;5.220;2023-09-19T13:49:00;0.70;;;0.60;;
65706;SDS011;52423;43.512;5.220;2023-09-19T13:51:28;0.55;;;0.55;;
65706;SDS011;52423;43.512;5.220;2023-09-19T13:53:55;0.80;;;0.80;;
65706;SDS011;52423;43.512;5.220;2023-09-19T13:56:20;0.60;;;0.60;;
65706;SDS011;52423;43.512;5.220;2023-09-19T13:58:46;0.40;;;0.40;;
65706;SDS011;52423;43.512;5.220;2023-09-19T14:01:12;2.10;;;0.75;;
65706;SDS011;52423;43.512;5.220;2023-09-19T14:03:41;0.60;;;0.60;;
65706;SDS011;52423;43.512;5.220;2023-09-19T14:06:11;0.65;;;0.65;;
65706;SDS011;52423;43.512;5.220;2023-09-19T14:08:37;0.70;;;0.70;;
65706;SDS011;52423;43.512;5.220;2023-09-19T14:11:06;0.70;;;0.70;;
65706;SDS011;52423;43.512;5.220;2023-09-19T14:13:35;0.60;;;0.60;;
65706;SDS011;52423;43.512;5.220;2023-09-19T14:16:04;0.60;;;0.60;;
65706;SDS011;52423;43.512;5.220;2023-09-19T14:18:30;0.55;;;0.55;;
65706;SDS011;52423;43.512;5.220;2023-09-19T14:20:56;0.40;;;0.40;;
65706;SDS011;52423;43.512;5.220;2023-09-19T14:23:21;0.40;;;0.40;;
65706;SDS011;52423;43.512;5.220;2023-09-19T14:25:48;0.55;;;0.50;;
65706;SDS011;52423;43.512;5.220;2023-09-19T14:28:13;2.13;;;0.70;;
65706;SDS011;52423;43.512;5.220;2023-09-19T14:30:39;0.52;;;0.52;;
65706;SDS011;52423;43.512;5.220;2023-09-19T14:33:04;0.57;;;0.57;;
65706;SDS011;52423;43.512;5.220;2023-09-19T14:35:31;0.50;;;0.50;;
65706;SDS011;52423;43.512;5.220;2023-09-19T14:37:56;1.02;;;0.43;;
65706;SDS011;52423;43.512;5.220;2023-09-19T14:40:22;0.95;;;0.70;;
65706;SDS011;52423;43.512;5.220;2023-09-19T14:42:47;0.57;;;0.57;;
65706;SDS011;52423;43.512;5.220;2023-09-19T14:45:13;0.50;;;0.50;;
65706;SDS011;52423;43.512;5.220;2023-09-19T14:47:42;0.65;;;0.60;;
65706;SDS011;52423;43.512;5.220;2023-09-19T14:50:08;2.08;;;0.73;;
65706;SDS011;52423;43.512;5.220;2023-09-19T14:52:35;0.75;;;0.70;;
65706;SDS011;52423;43.512;5.220;2023-09-19T14:55:01;0.60;;;0.60;;
65706;SDS011;52423;43.512;5.220;2023-09-19T14:57:27;0.50;;;0.50;;
65706;SDS011;52423;43.512;5.220;2023-09-19T14:59:52;0.60;;;0.60;;
65706;SDS011;52423;43.512;5.220;2023-09-19T15:02:18;0.50;;;0.50;;
65706;SDS011;52423;43.512;5.220;2023-09-19T15:04:44;0.50;;;0.50;;
65706;SDS011;52423;43.512;5.220;2023-09-19T15:07:11;0.88;;;0.70;;
65706;SDS011;52423;43.512;5.220;2023-09-19T15:09:37;0.60;;;0.60;;
65706;SDS011;52423;43.512;5.220;2023-09-19T15:12:03;0.52;;;0.52;;
65706;SDS011;52423;43.512;5.220;2023-09-19T15:14:28;0.60;;;0.60;;
65706;SDS011;52423;43.512;5.220;2023-09-19T15:16:56;1.60;;;0.77;;
65706;SDS011;52423;43.512;5.220;2023-09-19T15:19:22;1.30;;;0.57;;
65706;SDS011;52423;43.512;5.220;2023-09-19T15:21:47;0.50;;;0.50;;
65706;SDS011;52423;43.512;5.220;2023-09-19T15:24:13;0.60;;;0.60;;
65706;SDS011;52423;43.512;5.220;2023-09-19T15:26:39;0.75;;;0.60;;
65706;SDS011;52423;43.512;5.220;2023-09-19T15:29:05;3.78;;;0.80;;
65706;SDS011;52423;43.512;5.220;2023-09-19T15:31:31;1.38;;;0.70;;
65706;SDS011;52423;43.512;5.220;2023-09-19T15:33:57;1.00;;;0.90;;
65706;SDS011;52423;43.512;5.220;2023-09-19T15:36:23;2.63;;;0.75;;
65706;SDS011;52423;43.512;5.220;2023-09-19T15:39:01;0.55;;;0.55;;
65706;SDS011;52423;43.512;5.220;2023-09-19T15:43:55;2.38;;;0.60;;
65706;SDS011;52423;43.512;5.220;2023-09-19T15:46:21;0.95;;;0.70;;
65706;SDS011;52423;43.512;5.220;2023-09-19T15:48:48;1.02;;;0.60;;
65706;SDS011;52423;43.512;5.220;2023-09-19T15:51:14;0.55;;;0.55;;